Time;durP1;ratioP1;P1;durP2;ratioP2;P2;SDS_P1;SDS_P2;PMS_P1;PMS_P2;Temp;Humidity;BMP_temperature;BMP_pressure;BME280_temperature;BME280_humidity;BME280_pressure;Samples;Min_cycle;Max_cycle;Signal;HPM_P1;HPM_P2
2021/05/22 00:00:43;;;;;;;5.03;1.77;;;;;;;10.28;100.00;99517.38;639795;224;23896;-78
2021/05/22 00:03:11;;;;;;;10.57;1.30;;;;;;;10.33;99.81;99515.91;639248;224;24888;-78
2021/05/22 00:05:39;;;;;;;1.50;1.00;;;;;;;10.47;99.59;99515.77;639313;220;24909;-79
2021/05/22 00:08:07;;;;;;;7.90;1.30;;;;;;;10.70;99.54;99510.74;637595;224;24907;-78
2021/05/22 00:10:35;;;;;;;5.40;1.20;;;;;;;10.94;98.60;99503.38;637912;224;24839;-78
2021/05/22 00:13:03;;;;;;;4.20;1.23;;;;;;;11.19;98.09;99497.16;637909;224;28067;-78
2021/05/22 00:15:31;;;;;;;3.40;1.07;;;;;;;11.35;96.89;99491.09;638357;221;24881;-78
2021/05/22 00:17:59;;;;;;;5.80;1.30;;;;;;;11.48;94.87;99493.97;631877;224;33049;-79
2021/05/22 00:20:26;;;;;;;3.85;1.05;;;;;;;11.64;93.44;99504.81;632569;224;32840;-78
2021/05/22 00:22:54;;;;;;;6.60;1.20;;;;;;;11.37;96.00;99522.16;639662;224;23762;-79
2021/05/22 00:25:22;;;;;;;3.77;1.40;;;;;;;11.33;96.72;99514.38;638481;224;24868;-78
2021/05/22 00:27:50;;;;;;;7.70;1.17;;;;;;;11.31;98.34;99514.54;638343;224;24858;-78
2021/05/22 00:30:19;;;;;;;3.03;1.17;;;;;;;11.32;98.39;99531.78;638120;224;24895;-79
2021/05/22 00:32:47;;;;;;;3.37;1.27;;;;;;;10.96;100.00;99540.45;638659;224;24886;-79
2021/05/22 00:35:15;;;;;;;4.60;1.20;;;;;;;11.14;99.92;99554.11;631711;224;35832;-79
2021/05/22 00:37:43;;;;;;;8.57;1.60;;;;;;;10.43;100.00;99582.06;637194;225;24891;-79
2021/05/22 00:40:12;;;;;;;5.90;1.30;;;;;;;10.01;100.00;99601.55;637271;225;24902;-79
2021/05/22 00:42:41;;;;;;;4.97;1.25;;;;;;;9.74;100.00;99589.10;632162;224;32706;-80
2021/05/22 00:45:12;;;;;;;4.90;1.40;;;;;;;9.95;100.00;99582.20;640371;220;23742;-80
2021/05/22 00:47:40;;;;;;;7.17;1.17;;;;;;;9.86;100.00;99553.28;637853;224;23879;-79
2021/05/22 00:50:09;;;;;;;2.70;1.00;;;;;;;9.72;100.00;99538.30;633776;224;32838;-79
2021/05/22 00:52:37;;;;;;;1.55;0.95;;;;;;;10.04;100.00;99530.61;631809;224;32833;-80
2021/05/22 00:55:06;;;;;;;3.07;1.00;;;;;;;10.06;100.00;99518.27;638285;220;23729;-80
2021/05/22 00:57:33;;;;;;;1.77;0.80;;;;;;;10.35;100.00;99519.16;638879;224;24932;-79
2021/05/22 01:00:01;;;;;;;1.77;1.00;;;;;;;10.44;100.00;99512.68;640447;224;23871;-80
2021/05/22 01:02:29;;;;;;;1.57;1.00;;;;;;;10.49;100.00;99509.91;638619;224;24858;-79
2021/05/22 01:04:57;;;;;;;1.53;0.90;;;;;;;10.73;100.00;99509.11;639873;221;24906;-79
2021/05/22 01:07:25;;;;;;;1.43;1.00;;;;;;;10.62;100.00;99511.54;639975;224;24869;-79
2021/05/22 01:09:53;;;;;;;2.40;1.00;;;;;;;10.63;100.00;99513.66;638699;224;24847;-79
2021/05/22 01:12:21;;;;;;;3.30;1.00;;;;;;;10.76;100.00;99517.06;638774;224;24894;-79
2021/05/22 01:14:50;;;;;;;1.80;1.00;;;;;;;10.81;99.65;99516.08;639039;220;24853;-79
2021/05/22 01:17:18;;;;;;;1.83;1.03;;;;;;;10.94;99.18;99509.89;638305;224;24910;-79
2021/05/22 01:19:49;;;;;;;2.70;0.90;;;;;;;10.87;99.15;99511.53;634328;224;27027;-79
2021/05/22 01:22:17;;;;;;;7.10;1.27;;;;;;;10.78;99.89;99503.41;639352;224;24843;-79
2021/05/22 01:24:48;;;;;;;1.87;0.90;;;;;;;10.74;100.00;99506.02;637875;220;24816;-79
2021/05/22 01:27:16;;;;;;;2.90;1.17;;;;;;;10.67;100.00;99507.14;640893;224;25013;-79
2021/05/22 01:29:45;;;;;;;2.95;1.30;;;;;;;10.45;99.42;99496.11;632631;224;32656;-79
2021/05/22 01:32:12;;;;;;;2.80;1.30;;;;;;;10.38;100.00;99507.63;639675;224;23754;-78
2021/05/22 01:34:40;;;;;;;1.53;1.27;;;;;;;10.39;100.00;99489.75;637680;224;24950;-79
2021/05/22 01:37:08;;;;;;;3.90;1.40;;;;;;;10.08;100.00;99492.94;638451;224;24863;-79
2021/05/22 01:39:36;;;;;;;3.50;1.20;;;;;;;10.10;100.00;99494.88;637737;222;24876;-79
2021/05/22 01:42:04;;;;;;;2.70;1.10;;;;;;;10.01;100.00;99493.75;636957;224;25048;-78
2021/05/22 01:44:32;;;;;;;4.17;1.43;;;;;;;10.00;100.00;99494.23;638585;224;25175;-78
2021/05/22 01:47:00;;;;;;;5.80;1.30;;;;;;;9.78;100.00;99494.33;623090;227;24950;-79
2021/05/22 01:49:28;;;;;;;1.90;1.20;;;;;;;9.88;100.00;99498.09;638943;223;24891;-78
2021/05/22 01:51:56;;;;;;;6.70;1.50;;;;;;;9.85;100.00;99497.09;637053;224;24938;-78
2021/05/22 01:54:24;;;;;;;4.10;1.57;;;;;;;9.77;100.00;99494.00;637399;225;25936;-78
2021/05/22 01:56:52;;;;;;;5.13;1.03;;;;;;;9.70;100.00;99495.59;637448;221;24901;-79
2021/05/22 01:59:20;;;;;;;2.17;1.10;;;;;;;9.67;100.00;99496.39;638880;223;24841;-78
2021/05/22 02:01:49;;;;;;;2.23;1.07;;;;;;;9.60;100.00;99494.11;638048;224;24862;-78
2021/05/22 02:04:17;;;;;;;6.67;1.40;;;;;;;9.57;100.00;99499.59;637868;224;24887;-78
2021/05/22 02:06:45;;;;;;;2.40;1.20;;;;;;;9.58;100.00;99505.95;633104;224;24853;-79
2021/05/22 02:09:13;;;;;;;3.33;1.50;;;;;;;9.56;100.00;99514.84;637030;224;24879;-79
2021/05/22 02:11:41;;;;;;;2.43;1.30;;;;;;;9.48;100.00;99503.47;638411;224;24883;-79
2021/05/22 02:14:09;;;;;;;3.37;1.23;;;;;;;9.47;100.00;99503.63;637763;222;24915;-79
2021/05/22 02:16:37;;;;;;;2.37;1.23;;;;;;;9.40;100.00;99507.80;639914;220;24898;-79
2021/05/22 02:19:05;;;;;;;2.07;1.17;;;;;;;9.65;100.00;99502.23;635126;224;32664;-79
2021/05/22 02:21:33;;;;;;;4.15;1.20;;;;;;;9.77;100.00;99504.39;634196;224;32669;-79
2021/05/22 02:24:01;;;;;;;2.80;1.10;;;;;;;9.75;100.00;99499.03;633781;224;33161;-78
2021/05/22 02:26:29;;;;;;;3.87;1.20;;;;;;;9.53;100.00;99497.31;638092;224;23825;-79
2021/05/22 02:28:57;;;;;;;4.20;1.10;;;;;;;9.77;100.00;99491.41;634652;224;32676;-79
2021/05/22 02:31:25;;;;;;;5.08;1.27;;;;;;;9.66;100.00;99486.98;637837;223;33073;-78
2021/05/22 02:33:54;;;;;;;2.30;1.10;;;;;;;9.39;100.00;99496.60;638840;224;23729;-79
2021/05/22 02:36:22;;;;;;;3.83;0.93;;;;;;;9.32;100.00;99493.50;637231;224;24883;-78
2021/05/22 02:38:50;;;;;;;2.37;1.10;;;;;;;9.28;100.00;99493.45;639544;224;24920;-79
2021/05/22 02:41:18;;;;;;;5.20;1.23;;;;;;;9.37;100.00;99495.95;639331;224;24894;-79
2021/05/22 02:43:46;;;;;;;2.27;1.13;;;;;;;9.21;100.00;99488.90;632819;224;24895;-78
2021/05/22 02:46:14;;;;;;;4.30;1.20;;;;;;;9.11;100.00;99484.78;637537;224;24836;-79
2021/05/22 02:48:42;;;;;;;3.90;1.20;;;;;;;9.08;100.00;99498.06;638272;224;24855;-78
2021/05/22 02:51:10;;;;;;;2.90;1.47;;;;;;;9.07;100.00;99487.36;640078;224;24949;-78
2021/05/22 02:53:38;;;;;;;1.53;1.10;;;;;;;9.08;100.00;99487.69;637315;224;24949;-79
2021/05/22 02:56:06;;;;;;;5.23;1.10;;;;;;;9.05;100.00;99491.89;635411;220;24914;-78
2021/05/22 02:58:34;;;;;;;3.55;1.30;;;;;;;9.29;100.00;99494.62;633055;224;32704;-78
2021/05/22 03:01:02;;;;;;;6.43;1.40;;;;;;;9.26;100.00;99498.80;637740;224;26949;-79
2021/05/22 03:03:30;;;;;;;3.23;1.43;;;;;;;9.13;100.00;99497.11;638405;224;24839;-79
2021/05/22 03:06:00;;;;;;;2.67;1.10;;;;;;;9.09;100.00;99497.91;638379;221;24939;-78
2021/05/22 03:08:28;;;;;;;9.30;1.30;;;;;;;9.04;100.00;99503.23;638189;224;24878;-79
2021/05/22 03:10:56;;;;;;;6.00;1.53;;;;;;;9.08;100.00;99502.77;637401;224;24878;-78
2021/05/22 03:13:24;;;;;;;5.20;1.57;;;;;;;9.07;100.00;99505.52;637611;224;25298;-79
2021/05/22 03:15:52;;;;;;;4.30;1.10;;;;;;;8.87;100.00;99501.02;637897;224;24899;-79
2021/05/22 03:18:20;;;;;;;1.67;1.57;;;;;;;9.05;100.00;99500.97;626394;224;24946;-78
2021/05/22 03:20:48;;;;;;;1.70;1.20;;;;;;;9.02;100.00;99497.39;638465;224;24851;-79
2021/05/22 03:23:16;;;;;;;4.47;1.40;;;;;;;9.02;100.00;99503.39;638561;224;24864;-78
2021/05/22 03:25:44;;;;;;;3.00;1.30;;;;;;;9.08;100.00;99499.36;639143;220;26076;-78
2021/05/22 03:28:12;;;;;;;6.57;1.70;;;;;;;8.89;100.00;99499.09;640937;223;24829;-78
2021/05/22 03:30:40;;;;;;;4.00;1.50;;;;;;;9.14;100.00;99496.14;632820;221;32967;-78
2021/05/22 03:33:08;;;;;;;4.75;1.60;;;;;;;9.31;100.00;99499.66;634081;224;33342;-79
2021/05/22 03:35:36;;;;;;;9.93;1.63;;;;;;;9.15;100.00;99497.31;640009;220;23761;-78
2021/05/22 03:38:04;;;;;;;3.73;1.47;;;;;;;9.28;100.00;99502.05;635354;224;32670;-78
2021/05/22 03:40:32;;;;;;;5.30;1.60;;;;;;;9.11;100.00;99514.13;638424;224;24897;-78
2021/05/22 03:43:01;;;;;;;4.97;1.53;;;;;;;9.08;100.00;99505.84;638411;224;24923;-78
2021/05/22 03:45:29;;;;;;;1.67;1.40;;;;;;;9.16;100.00;99503.31;639027;224;24874;-78
2021/05/22 03:47:57;;;;;;;4.83;1.87;;;;;;;9.22;100.00;99509.17;638739;223;25162;-78
2021/05/22 03:50:25;;;;;;;5.57;1.77;;;;;;;9.17;100.00;99515.31;638738;224;24907;-77
2021/05/22 03:52:53;;;;;;;3.83;1.50;;;;;;;9.26;100.00;99516.16;638820;224;24897;-78
2021/05/22 03:55:21;;;;;;;4.00;1.30;;;;;;;9.23;100.00;99515.50;638965;221;24874;-78
2021/05/22 03:57:49;;;;;;;5.90;1.70;;;;;;;9.32;100.00;99516.85;637684;224;24887;-78
2021/05/22 04:00:18;;;;;;;5.90;1.37;;;;;;;9.52;100.00;99519.05;638954;224;24873;-78
2021/05/22 04:02:46;;;;;;;2.70;1.40;;;;;;;9.44;100.00;99516.92;639290;222;24883;-78
2021/05/22 04:05:14;;;;;;;5.40;1.53;;;;;;;9.59;100.00;99518.45;638304;224;24876;-78
2021/05/22 04:07:42;;;;;;;3.70;1.47;;;;;;;9.50;100.00;99521.48;638594;224;29178;-78
2021/05/22 04:10:11;;;;;;;4.50;1.53;;;;;;;9.61;100.00;99525.10;638060;224;24998;-78
2021/05/22 04:12:39;;;;;;;6.80;1.60;;;;;;;9.76;100.00;99526.63;637807;224;24890;-78
2021/05/22 04:15:08;;;;;;;2.93;1.40;;;;;;;9.97;100.00;99524.89;639805;220;24854;-78
2021/05/22 04:17:36;;;;;;;8.67;1.80;;;;;;;9.78;100.00;99527.27;637035;224;27125;-78
2021/05/22 04:20:05;;;;;;;3.23;1.23;;;;;;;9.67;100.00;99526.25;638398;224;24837;-78
2021/05/22 04:22:33;;;;;;;1.40;1.30;;;;;;;9.80;100.00;99535.72;639557;224;24879;-78
2021/05/22 04:25:01;;;;;;;2.87;1.20;;;;;;;10.15;100.00;99537.30;638701;220;24892;-79
2021/05/22 04:27:29;;;;;;;5.83;1.60;;;;;;;10.29;99.13;99538.50;638535;224;24890;-78
2021/05/22 04:29:57;;;;;;;2.57;1.43;;;;;;;10.45;99.47;99542.91;638842;224;24887;-78
2021/05/22 04:32:25;;;;;;;4.73;1.63;;;;;;;10.60;98.46;99545.19;638626;224;26187;-78
2021/05/22 04:34:53;;;;;;;2.57;1.20;;;;;;;10.86;97.33;99539.83;637369;224;24887;-79
2021/05/22 04:37:21;;;;;;;3.57;1.53;;;;;;;10.98;95.76;99540.64;637163;224;24854;-78
2021/05/22 04:39:49;;;;;;;3.60;1.20;;;;;;;10.50;98.00;99554.43;638531;223;24849;-77
2021/05/22 04:42:17;;;;;;;2.60;1.17;;;;;;;10.97;95.92;99548.58;641484;224;25084;-79
2021/05/22 04:44:45;;;;;;;4.53;1.50;;;;;;;10.59;96.96;99549.58;634958;221;23873;-78
2021/05/22 04:47:13;;;;;;;4.40;1.47;;;;;;;10.53;95.69;99550.20;638256;224;24895;-78
2021/05/22 04:49:41;;;;;;;10.80;1.60;;;;;;;11.12;96.38;99549.56;638566;224;24873;-78
2021/05/22 04:52:09;;;;;;;2.83;1.67;;;;;;;11.17;94.76;99544.66;640124;224;24884;-78
2021/05/22 04:54:36;;;;;;;6.10;1.67;;;;;;;11.42;93.13;99542.83;639535;224;24855;-78
2021/05/22 04:57:05;;;;;;;6.95;1.75;;;;;;;11.76;90.65;99537.81;632854;224;33380;-78
2021/05/22 04:59:33;;;;;;;4.20;1.60;;;;;;;11.63;90.83;99539.66;637542;224;23731;-79
2021/05/22 05:02:01;;;;;;;5.40;1.63;;;;;;;10.89;93.26;99540.80;638583;224;24850;-78
2021/05/22 05:04:33;;;;;;;4.57;1.40;;;;;;;11.15;91.91;99553.13;638051;223;24882;-79
2021/05/22 05:07:03;;;;;;;3.60;1.53;;;;;;;11.61;92.32;99548.12;638798;220;24874;-78
2021/05/22 05:09:31;;;;;;;8.50;1.67;;;;;;;11.28;92.47;99543.52;640528;224;24915;-78
2021/05/22 05:12:01;;;;;;;4.67;1.37;;;;;;;11.72;91.49;99544.35;631688;224;33033;-78
2021/05/22 05:14:29;;;;;;;4.83;1.20;;;;;;;11.11;92.31;99557.02;638673;224;23753;-78
2021/05/22 05:16:56;;;;;;;3.20;1.30;;;;;;;11.65;90.80;99549.90;637927;224;24871;-78
2021/05/22 05:19:27;;;;;;;6.43;1.27;;;;;;;11.22;90.41;99549.36;637546;222;24916;-78
2021/05/22 05:21:52;;;;;;;3.00;1.20;;;;;;;11.51;91.10;99555.31;633866;224;32761;-78
2021/05/22 05:24:20;;;;;;;6.00;1.50;;;;;;;11.63;90.70;99555.28;635143;224;32668;-78
2021/05/22 05:26:48;;;;;;;1.57;1.00;;;;;;;11.98;89.42;99551.93;638546;220;24839;-78
2021/05/22 05:29:16;;;;;;;3.93;1.30;;;;;;;12.14;87.04;99544.02;637974;224;24911;-78
2021/05/22 05:31:44;;;;;;;3.30;1.22;;;;;;;12.14;86.82;99543.53;628317;224;33072;-77
2021/05/22 05:34:12;;;;;;;6.13;1.80;;;;;;;11.43;88.79;99554.05;639846;224;23729;-77
2021/05/22 05:36:40;;;;;;;4.33;1.33;;;;;;;11.78;88.28;99554.09;637274;224;24874;-78
2021/05/22 05:39:10;;;;;;;4.70;1.43;;;;;;;12.59;86.49;99544.53;637564;224;24862;-77
2021/05/22 05:41:36;;;;;;;6.77;1.27;;;;;;;13.07;85.02;99535.96;637512;224;24896;-78
2021/05/22 05:44:05;;;;;;;4.08;1.50;;;;;;;13.55;81.45;99532.57;632445;223;32829;-78
2021/05/22 05:46:33;;;;;;;4.47;1.27;;;;;;;13.52;82.68;99541.59;637222;224;22772;-78
2021/05/22 05:49:01;;;;;;;5.33;1.43;;;;;;;13.47;81.62;99541.30;638837;223;24907;-78
2021/05/22 05:51:29;;;;;;;4.13;1.53;;;;;;;13.24;82.71;99541.39;640848;222;23876;-79
2021/05/22 05:53:57;;;;;;;3.70;1.30;;;;;;;13.62;80.11;99542.09;638938;224;24893;-79
2021/05/22 05:56:25;;;;;;;5.43;2.03;;;;;;;12.65;82.30;99541.21;640458;220;23884;-79
2021/05/22 05:58:53;;;;;;;6.77;1.50;;;;;;;12.71;83.14;99542.33;639641;224;25306;-79
2021/05/22 06:01:21;;;;;;;11.87;1.70;;;;;;;13.00;82.05;99545.50;637941;224;24864;-79
2021/05/22 06:03:49;;;;;;;5.37;1.17;;;;;;;13.23;80.55;99535.02;639595;224;24843;-78
2021/05/22 06:06:17;;;;;;;5.30;1.20;;;;;;;12.58;81.94;99544.71;638737;224;24885;-78
2021/05/22 06:08:45;;;;;;;4.40;2.20;;;;;;;12.42;84.01;99553.47;639658;224;24850;-79
2021/05/22 06:11:15;;;;;;;5.10;1.53;;;;;;;13.12;81.84;99558.95;639266;224;24852;-77
2021/05/22 06:13:42;;;;;;;11.90;3.00;;;;;;;13.39;82.02;99558.38;637269;224;24933;-78
2021/05/22 06:16:19;;;;;;;6.60;1.53;;;;;;;12.70;80.73;99548.53;637097;225;28118;-78
2021/05/22 06:18:41;;;;;;;5.80;1.40;;;;;;;13.62;79.77;99544.71;637086;224;24970;-78
2021/05/22 06:21:09;;;;;;;5.40;1.53;;;;;;;13.43;78.61;99534.81;638419;224;24850;-79
2021/05/22 06:23:37;;;;;;;4.17;1.13;;;;;;;14.41;77.58;99534.36;637500;224;24936;-78
2021/05/22 06:26:05;;;;;;;4.30;1.30;;;;;;;13.54;78.21;99527.84;638920;224;24903;-79
2021/05/22 06:28:33;;;;;;;5.77;1.20;;;;;;;13.34;78.66;99531.47;639106;224;23879;-78
2021/05/22 06:31:01;;;;;;;3.93;1.20;;;;;;;13.27;79.92;99543.64;637047;224;24892;-79
2021/05/22 06:33:29;;;;;;;4.23;1.40;;;;;;;13.96;78.97;99540.72;637652;224;24852;-79
2021/05/22 06:35:57;;;;;;;6.67;1.63;;;;;;;13.86;77.84;99536.27;639548;220;24191;-77
2021/05/22 06:38:24;;;;;;;8.30;1.83;;;;;;;13.54;76.74;99522.62;637014;224;24880;-78
2021/05/22 06:40:52;;;;;;;4.30;1.40;;;;;;;13.34;78.57;99530.66;636886;224;24938;-78
2021/05/22 06:43:20;;;;;;;6.27;1.70;;;;;;;13.88;78.06;99529.86;638730;224;24858;-79
2021/05/22 06:45:58;;;;;;;6.63;1.43;;;;;;;13.36;77.70;99524.27;639249;220;28094;-78
2021/05/22 06:48:23;;;;;;;4.47;1.27;;;;;;;12.93;78.28;99523.70;637463;224;24919;-78
2021/05/22 06:50:51;;;;;;;6.62;1.50;;;;;;;13.41;79.49;99531.58;632010;224;32908;-79
2021/05/22 06:53:19;;;;;;;10.60;2.00;;;;;;;13.30;77.40;99515.86;631370;224;32934;-78
2021/05/22 06:55:47;;;;;;;8.10;1.53;;;;;;;13.45;77.14;99506.71;639059;224;24842;-78
2021/05/22 06:58:17;;;;;;;7.27;1.50;;;;;;;13.26;75.79;99507.27;638195;224;29174;-78
2021/05/22 07:00:44;;;;;;;4.80;1.30;;;;;;;13.20;78.04;99519.22;640157;224;27073;-79
2021/05/22 07:03:11;;;;;;;6.00;1.50;;;;;;;13.97;78.19;99533.19;641905;222;24853;-78
2021/05/22 07:05:40;;;;;;;4.57;1.10;;;;;;;13.41;76.10;99508.56;638645;223;23900;-78
2021/05/22 07:08:08;;;;;;;7.57;1.90;;;;;;;13.39;74.74;99507.45;638415;224;24902;-77
2021/05/22 07:10:36;;;;;;;7.37;1.60;;;;;;;13.51;74.86;99509.92;639658;224;24868;-78
2021/05/22 07:13:04;;;;;;;12.27;1.40;;;;;;;14.31;75.02;99528.62;639330;224;24863;-78
2021/05/22 07:15:32;;;;;;;5.07;1.43;;;;;;;14.06;73.87;99512.95;639950;224;24871;-78
2021/05/22 07:18:01;;;;;;;6.10;1.30;;;;;;;13.08;76.02;99518.81;640366;224;24848;-78
2021/05/22 07:20:30;;;;;;;4.30;1.50;;;;;;;13.56;73.42;99535.00;640836;223;24859;-78
2021/05/22 07:22:58;;;;;;;6.33;1.20;;;;;;;12.93;74.70;99518.47;638466;224;25043;-78
2021/05/22 07:25:25;;;;;;;6.13;1.50;;;;;;;13.24;74.83;99522.30;638747;220;24831;-78
2021/05/22 07:27:54;;;;;;;4.93;1.53;;;;;;;12.98;73.18;99520.89;638367;224;24876;-78
2021/05/22 07:30:23;;;;;;;5.87;1.57;;;;;;;13.35;72.23;99516.11;639100;224;24860;-78
2021/05/22 07:32:51;;;;;;;6.30;1.50;;;;;;;13.63;71.94;99510.25;639002;224;24896;-78
2021/05/22 07:35:18;;;;;;;6.53;1.47;;;;;;;13.95;73.93;99516.39;639856;221;25995;-78
2021/05/22 07:37:46;;;;;;;7.40;1.20;;;;;;;14.05;69.58;99513.95;638620;224;24852;-78
2021/05/22 07:40:15;;;;;;;7.43;1.23;;;;;;;14.23;69.83;99513.87;640013;224;24816;-78
2021/05/22 07:42:47;;;;;;;5.70;1.43;;;;;;;13.81;70.88;99513.30;639189;224;24879;-78
2021/05/22 07:45:12;;;;;;;6.20;1.10;;;;;;;14.07;70.01;99504.92;637682;220;24955;-79
2021/05/22 07:47:41;;;;;;;4.40;1.30;;;;;;;14.18;67.44;99507.05;639435;224;24851;-78
2021/05/22 07:50:09;;;;;;;4.20;1.40;;;;;;;13.78;66.92;99501.08;612847;234;24966;-78
2021/05/22 07:52:40;;;;;;;5.20;1.13;;;;;;;13.73;67.60;99507.36;637875;224;25226;-78
2021/05/22 07:55:07;;;;;;;6.70;1.17;;;;;;;13.74;69.35;99523.35;638787;224;26015;-79
2021/05/22 07:57:35;;;;;;;7.80;1.30;;;;;;;13.82;69.56;99516.23;638219;224;24802;-78
2021/05/22 08:00:04;;;;;;;3.70;1.30;;;;;;;13.70;68.78;99517.69;638489;223;24147;-78
2021/05/22 08:02:32;;;;;;;4.10;1.33;;;;;;;13.45;68.29;99539.86;637900;224;24896;-78
2021/05/22 08:05:00;;;;;;;5.60;1.15;;;;;;;13.04;68.82;99526.69;632222;224;32859;-78
2021/05/22 08:07:29;;;;;;;4.40;1.23;;;;;;;13.16;67.81;99526.27;639021;224;25938;-78
2021/05/22 08:09:55;;;;;;;5.20;1.10;;;;;;;13.34;67.53;99517.11;638021;224;24850;-78
2021/05/22 08:12:24;;;;;;;5.93;1.20;;;;;;;13.47;66.43;99509.95;633666;224;32665;-78
2021/05/22 08:14:53;;;;;;;6.90;1.47;;;;;;;13.88;66.95;99497.69;639569;220;25973;-78
2021/05/22 08:17:22;;;;;;;3.97;1.50;;;;;;;13.99;66.75;99501.12;639873;224;24849;-78
2021/05/22 08:19:50;;;;;;;4.47;1.50;;;;;;;14.04;65.85;99500.07;635546;223;32903;-78
2021/05/22 08:22:18;;;;;;;10.80;1.73;;;;;;;14.02;61.54;99527.40;639318;224;23879;-78
2021/05/22 08:24:46;;;;;;;2.47;0.83;;;;;;;13.90;63.50;99489.16;636104;224;24876;-78
2021/05/22 08:27:14;;;;;;;5.13;1.50;;;;;;;13.96;62.92;99484.52;640184;224;25136;-78
2021/05/22 08:29:41;;;;;;;5.90;2.03;;;;;;;14.48;63.52;99486.03;640932;223;24865;-78
2021/05/22 08:32:09;;;;;;;2.27;1.40;;;;;;;14.28;63.24;99490.26;639408;224;23953;-78
2021/05/22 08:34:39;;;;;;;6.43;1.10;;;;;;;14.50;63.34;99477.52;638573;224;25156;-78
2021/05/22 08:37:06;;;;;;;1.63;0.90;;;;;;;14.36;63.82;99478.38;639397;220;24894;-79
2021/05/22 08:39:35;;;;;;;6.03;1.37;;;;;;;14.22;64.21;99493.13;638974;224;24871;-78
2021/05/22 08:42:04;;;;;;;5.17;1.77;;;;;;;14.28;62.82;99483.22;639676;224;24958;-79
2021/05/22 08:44:34;;;;;;;8.50;1.40;;;;;;;14.51;62.95;99475.22;639178;221;24874;-78
2021/05/22 08:50:06;;;;;;;6.65;1.50;;;;;;;14.73;61.06;99478.09;644439;216;32359;-75
2021/05/22 08:52:34;;;;;;;4.47;1.23;;;;;;;14.69;61.64;99473.44;637512;225;23740;-75
2021/05/22 08:55:03;;;;;;;6.80;1.43;;;;;;;14.70;61.97;99472.44;636417;225;24867;-75
2021/05/22 08:57:31;;;;;;;3.90;0.90;;;;;;;15.33;62.05;99458.30;627896;226;28091;-75
2021/05/22 09:00:00;;;;;;;6.07;1.20;;;;;;;15.48;60.58;99469.16;634345;225;23944;-76
2021/05/22 09:02:27;;;;;;;4.00;0.97;;;;;;;15.19;60.23;99455.31;634052;225;24841;-75
2021/05/22 09:05:06;;;;;;;3.37;1.10;;;;;;;16.20;60.16;99478.61;622753;230;25180;-74
2021/05/22 09:07:34;;;;;;;3.47;0.93;;;;;;;16.23;58.49;99473.45;615319;230;28253;-73
2021/05/22 09:10:08;;;;;;;6.57;1.70;;;;;;;15.92;59.89;99460.39;627127;228;23928;-75
2021/05/22 09:12:36;;;;;;;2.20;0.90;;;;;;;16.53;59.70;99479.94;623873;229;24907;-72
2021/05/22 09:15:08;;;;;;;1.23;1.07;;;;;;;15.97;58.77;99450.10;635731;224;24820;-72
2021/05/22 09:17:35;;;;;;;6.77;1.60;;;;;;;15.57;57.41;99461.44;637514;225;24917;-75
2021/05/22 09:20:14;;;;;;;2.63;1.00;;;;;;;15.41;57.12;99471.27;637276;225;24912;-75
2021/05/22 09:22:42;;;;;;;3.50;1.10;;;;;;;15.22;57.23;99452.33;639881;225;23877;-75
2021/05/22 09:25:11;;;;;;;2.93;1.20;;;;;;;15.59;57.53;99452.87;627066;229;25002;-75
2021/05/22 09:27:39;;;;;;;6.30;1.20;;;;;;;15.51;55.57;99459.62;626306;225;24943;-75
2021/05/22 09:30:10;;;;;;;2.30;1.20;;;;;;;15.64;56.41;99476.23;624133;229;24910;-75
2021/05/22 09:32:38;;;;;;;7.50;1.33;;;;;;;15.40;58.43;99474.88;628975;226;24880;-76
2021/05/22 09:35:07;;;;;;;2.50;1.43;;;;;;;14.90;57.10;99479.11;624490;228;24955;-75
2021/05/22 09:37:43;;;;;;;3.50;1.37;;;;;;;14.96;58.60;99476.55;623298;229;23927;-76
2021/05/22 09:40:14;;;;;;;2.77;0.80;;;;;;;15.40;59.16;99481.94;634397;225;32316;-73
2021/05/22 09:42:42;;;;;;;2.63;1.00;;;;;;;15.73;59.57;99485.53;628119;228;23970;-74
2021/05/22 09:45:21;;;;;;;3.83;1.23;;;;;;;16.09;61.17;99484.94;629503;225;24962;-73
2021/05/22 09:47:50;;;;;;;6.57;1.57;;;;;;;15.89;59.53;99472.56;624178;225;23918;-73
2021/05/22 09:50:30;;;;;;;5.67;0.97;;;;;;;15.21;56.59;99484.77;651210;217;27668;-73
2021/05/22 09:52:58;;;;;;;6.87;1.03;;;;;;;15.85;56.82;99470.04;639685;224;23832;-78
2021/05/22 09:55:26;;;;;;;3.27;1.00;;;;;;;15.90;54.97;99467.63;636407;224;24847;-73
2021/05/22 09:58:08;;;;;;;3.83;1.00;;;;;;;16.07;54.23;99469.41;627068;228;23861;-73
2021/05/22 10:00:36;;;;;;;4.63;0.97;;;;;;;16.30;54.75;99471.12;626988;225;24867;-73
2021/05/22 10:03:13;;;;;;;4.10;1.20;;;;;;;16.60;54.82;99482.05;655036;208;24494;-73
2021/05/22 10:05:44;;;;;;;3.00;1.00;;;;;;;16.60;56.29;99480.73;637052;221;27055;-74
2021/05/22 10:08:11;;;;;;;3.30;1.00;;;;;;;16.89;55.05;99482.66;626492;225;23998;-74
2021/05/22 10:10:40;;;;;;;3.37;1.20;;;;;;;16.31;55.11;99467.50;632884;226;23971;-72
2021/05/22 10:13:08;;;;;;;3.83;1.03;;;;;;;16.43;54.97;99474.27;629256;225;28142;-71
2021/05/22 10:15:37;;;;;;;2.80;0.90;;;;;;;16.75;54.26;99474.50;646121;220;24913;-72
2021/05/22 10:18:06;;;;;;;3.67;0.80;;;;;;;17.21;53.67;99471.30;630395;225;28129;-72
2021/05/22 10:20:34;;;;;;;4.60;1.27;;;;;;;16.36;54.52;99477.41;627592;226;23939;-71
2021/05/22 10:23:03;;;;;;;3.80;1.10;;;;;;;15.70;55.92;99499.54;626950;226;23955;-71
2021/05/22 10:25:32;;;;;;;3.03;0.87;;;;;;;15.70;56.81;99500.34;647594;220;23920;-74
2021/05/22 10:28:01;;;;;;;3.17;1.53;;;;;;;15.31;56.58;99510.10;650128;220;24881;-73
2021/05/22 10:30:30;;;;;;;8.03;1.17;;;;;;;16.03;57.26;99512.75;645614;220;23902;-73
2021/05/22 10:33:00;;;;;;;3.07;0.97;;;;;;;16.41;56.02;99484.67;648854;220;23905;-71
2021/05/22 10:35:28;;;;;;;3.90;1.17;;;;;;;16.34;54.85;99495.18;648009;220;23948;-75
2021/05/22 10:37:57;;;;;;;4.00;1.00;;;;;;;16.01;55.95;99512.14;646679;220;24922;-74
2021/05/22 10:40:33;;;;;;;3.67;1.17;;;;;;;16.22;56.64;99504.64;629118;225;23960;-71
2021/05/22 10:43:03;;;;;;;5.70;1.03;;;;;;;16.37;54.90;99500.53;628395;226;23966;-72
2021/05/22 10:45:33;;;;;;;5.20;0.90;;;;;;;17.04;56.20;99504.30;629709;225;24943;-71
2021/05/22 10:48:01;;;;;;;3.35;0.90;;;;;;;17.35;54.36;99505.45;622996;226;43524;-71
2021/05/22 10:50:35;;;;;;;3.70;1.27;;;;;;;17.44;54.58;99504.19;649560;220;22778;-71
2021/05/22 10:53:14;;;;;;;4.70;1.00;;;;;;;16.99;52.90;99490.95;631148;225;24949;-71
2021/05/22 10:55:42;;;;;;;2.30;0.80;;;;;;;16.70;53.81;99488.75;643233;221;23984;-72
2021/05/22 10:58:12;;;;;;;4.37;0.90;;;;;;;16.55;53.90;99491.05;638872;221;27445;-72
2021/05/22 11:00:40;;;;;;;1.77;0.83;;;;;;;16.52;54.72;99494.58;632242;225;23960;-74
2021/05/22 11:03:12;;;;;;;3.67;0.83;;;;;;;16.83;53.89;99490.06;634532;225;23927;-71
2021/05/22 11:05:40;;;;;;;4.53;1.10;;;;;;;17.51;53.25;99493.16;641496;220;23957;-71
2021/05/22 11:08:18;;;;;;;9.07;1.00;;;;;;;17.30;51.97;99490.78;633185;226;23988;-71
2021/05/22 11:10:48;;;;;;;4.97;1.10;;;;;;;17.20;51.64;99493.34;635692;226;27091;-71
2021/05/22 11:13:34;;;;;;;1.80;0.83;;;;;;;16.79;52.81;99487.04;636009;224;23965;-72
2021/05/22 11:16:06;;;;;;;1.70;0.97;;;;;;;16.94;53.12;99497.33;642418;220;23889;-72
2021/05/22 11:18:54;;;;;;;2.00;0.83;;;;;;;16.24;52.71;99494.75;636937;225;24910;-72
2021/05/22 11:21:22;;;;;;;2.47;1.00;;;;;;;16.26;53.07;99501.41;643923;221;23892;-72
2021/05/22 11:23:58;;;;;;;2.40;1.07;;;;;;;16.36;52.86;99498.91;646128;221;24993;-72
2021/05/22 11:26:58;;;;;;;2.10;1.10;;;;;;;16.10;52.12;99497.85;630214;225;27118;-72
2021/05/22 11:29:55;;;;;;;;;;;;;;;;;;;;;
2021/05/22 11:32:35;;;;;;;4.83;1.10;;;;;;;17.76;52.64;99500.67;655171;213;24561;-72
2021/05/22 11:35:26;;;;;;;2.50;0.83;;;;;;;17.65;51.88;99496.55;640194;221;23903;-72
2021/05/22 11:37:54;;;;;;;7.07;1.10;;;;;;;16.76;51.24;99487.95;641337;221;24885;-72
2021/05/22 11:40:47;;;;;;;3.93;1.07;;;;;;;16.82;51.56;99490.56;637028;225;23914;-72
2021/05/22 11:43:25;;;;;;;2.77;0.90;;;;;;;17.20;51.61;99488.09;639017;224;23923;-72
2021/05/22 11:45:51;;;;;;;2.03;0.90;;;;;;;17.30;51.12;99484.20;626555;226;24900;-72